createdAt,value
2022-08-02T00:00:09.572Z,1.48
2022-08-02T00:02:36.633Z,1.55
2022-08-02T00:05:03.980Z,1.38
2022-08-02T00:07:31.091Z,1.55
2022-08-02T00:09:58.008Z,1.60
2022-08-02T00:12:25.097Z,1.75
2022-08-02T00:14:52.614Z,1.88
2022-08-02T00:17:19.829Z,1.42
2022-08-02T00:19:46.775Z,1.55
2022-08-02T00:22:14.636Z,1.33
2022-08-02T00:24:41.794Z,1.40
2022-08-02T00:27:09.341Z,1.27
2022-08-02T00:29:42.683Z,1.50
2022-08-02T00:32:19.677Z,1.38
2022-08-02T00:34:46.816Z,1.45
2022-08-02T00:37:13.995Z,1.50
2022-08-02T00:39:42.536Z,1.40
2022-08-02T00:42:10.754Z,1.57
2022-08-02T00:44:38.081Z,1.43
2022-08-02T00:47:05.298Z,1.40
2022-08-02T00:49:32.795Z,1.70
2022-08-02T00:52:00.214Z,1.10
2022-08-02T00:54:27.408Z,1.13
2022-08-02T00:56:54.566Z,1.55
2022-08-02T00:59:21.679Z,1.30
2022-08-02T01:01:57.175Z,1.38
2022-08-02T01:04:30.422Z,1.75
2022-08-02T01:07:00.403Z,1.13
2022-08-02T01:09:27.790Z,1.48
2022-08-02T01:11:54.663Z,1.25
2022-08-02T01:14:24.420Z,1.25
2022-08-02T01:17:22.711Z,1.50
2022-08-02T01:23:06.118Z,1.40
2022-08-02T01:25:38.780Z,1.25
2022-08-02T01:31:26.725Z,1.13
2022-08-02T01:34:01.797Z,1.30
2022-08-02T01:36:33.276Z,1.10
2022-08-02T01:39:01.590Z,1.30
2022-08-02T01:41:29.681Z,1.30
2022-08-02T01:43:58.877Z,1.17
2022-08-02T01:46:28.134Z,1.40
2022-08-02T01:48:56.865Z,1.45
2022-08-02T01:51:45.223Z,1.42
2022-08-02T01:54:15.138Z,1.20
2022-08-02T02:01:43.435Z,1.25
2022-08-02T02:04:12.522Z,1.50
2022-08-02T02:06:40.307Z,1.40
2022-08-02T02:09:07.611Z,1.35
2022-08-02T02:12:06.312Z,1.45
2022-08-02T02:14:22.186Z,1.55
2022-08-02T02:16:49.684Z,1.40
2022-08-02T02:19:21.412Z,1.70
2022-08-02T02:21:49.761Z,1.63
2022-08-02T02:24:16.716Z,1.50
2022-08-02T02:26:52.126Z,1.40
2022-08-02T02:29:22.113Z,1.42
2022-08-02T02:34:18.306Z,1.63
2022-08-02T02:36:50.928Z,1.60
2022-08-02T02:39:20.648Z,1.60
2022-08-02T02:41:49.080Z,1.42
2022-08-02T02:44:20.141Z,1.48
2022-08-02T02:46:50.295Z,1.50
2022-08-02T02:49:18.590Z,1.35
2022-08-02T02:51:45.908Z,1.52
2022-08-02T02:54:32.357Z,1.77
2022-08-02T02:57:01.612Z,1.42
2022-08-02T02:59:28.895Z,1.55
2022-08-02T03:01:58.094Z,1.80
2022-08-02T03:04:55.183Z,1.60
2022-08-02T03:07:15.349Z,1.60
2022-08-02T03:09:42.274Z,1.23
2022-08-02T03:12:10.278Z,1.75
2022-08-02T03:14:43.062Z,2.22
2022-08-02T03:17:10.056Z,1.48
2022-08-02T03:19:37.082Z,1.70
2022-08-02T03:22:04.022Z,1.80
2022-08-02T03:24:31.050Z,1.80
2022-08-02T03:26:57.935Z,1.70
2022-08-02T03:29:24.840Z,1.42
2022-08-02T03:31:51.964Z,1.60
2022-08-02T03:34:18.978Z,1.58
2022-08-02T03:36:49.113Z,1.60
2022-08-02T03:39:16.303Z,1.73
2022-08-02T03:41:43.615Z,1.70
2022-08-02T03:44:11.570Z,1.60
2022-08-02T03:46:39.905Z,1.80
2022-08-02T03:49:08.387Z,1.60
2022-08-02T03:51:38.345Z,1.90
2022-08-02T03:54:05.407Z,1.70
2022-08-02T03:56:32.488Z,1.67
2022-08-02T03:59:07.863Z,2.17
2022-08-02T04:01:34.833Z,2.10
2022-08-02T04:04:01.827Z,1.60
2022-08-02T04:06:28.693Z,2.00
2022-08-02T04:08:55.585Z,2.00
2022-08-02T04:11:31.479Z,1.90
2022-08-02T04:14:05.032Z,1.92
2022-08-02T04:16:39.313Z,1.70
2022-08-02T04:19:08.973Z,1.95
2022-08-02T04:24:18.642Z,2.10
2022-08-02T04:26:48.125Z,1.73
2022-08-02T04:29:17.795Z,1.80
2022-08-02T04:31:44.717Z,1.77
2022-08-02T04:34:15.034Z,1.60
2022-08-02T04:36:42.294Z,1.90
2022-08-02T04:39:09.317Z,1.45
2022-08-02T04:41:44.541Z,2.10
2022-08-02T04:44:12.370Z,1.73
2022-08-02T04:46:40.166Z,1.85
2022-08-02T04:49:07.535Z,1.75
2022-08-02T04:51:38.381Z,1.80
2022-08-02T04:54:09.506Z,1.70
2022-08-02T04:56:38.444Z,1.52
2022-08-02T04:59:05.929Z,1.60
2022-08-02T05:01:32.838Z,1.92
2022-08-02T05:03:59.796Z,1.85
2022-08-02T05:06:26.750Z,1.65
2022-08-02T05:08:53.937Z,1.75
2022-08-02T05:11:36.019Z,1.70
2022-08-02T05:14:05.296Z,1.60
2022-08-02T05:16:32.597Z,1.67
2022-08-02T05:19:02.816Z,1.70
2022-08-02T05:21:31.421Z,1.92
2022-08-02T05:23:58.379Z,1.73
2022-08-02T05:26:25.280Z,1.63
2022-08-02T05:28:52.151Z,1.70
2022-08-02T05:31:19.061Z,1.30
2022-08-02T05:33:46.069Z,1.75
2022-08-02T05:36:13.063Z,1.63
2022-08-02T05:38:39.958Z,1.55
2022-08-02T05:41:09.053Z,1.77
2022-08-02T05:43:36.033Z,1.70
2022-08-02T05:46:02.936Z,1.70
2022-08-02T05:48:32.244Z,1.80
2022-08-02T05:53:52.898Z,1.70
2022-08-02T05:56:32.376Z,1.67
2022-08-02T06:01:41.045Z,1.60
2022-08-02T06:04:10.330Z,1.52
2022-08-02T06:06:38.018Z,1.50
2022-08-02T06:09:10.377Z,1.77
2022-08-02T06:11:40.054Z,1.70
2022-08-02T06:14:07.958Z,1.40
2022-08-02T06:16:42.239Z,1.52
2022-08-02T06:19:11.905Z,1.85
2022-08-02T06:22:32.599Z,1.40
2022-08-02T06:24:30.479Z,1.55
2022-08-02T06:26:57.499Z,1.40
2022-08-02T06:29:25.070Z,1.95
2022-08-02T06:31:53.681Z,1.75
2022-08-02T06:34:20.661Z,1.73
2022-08-02T06:37:05.792Z,1.58
2022-08-02T06:39:44.355Z,1.60
2022-08-02T06:42:16.930Z,1.70
2022-08-02T06:44:57.251Z,1.67
2022-08-02T06:47:25.387Z,1.30
2022-08-02T06:49:54.188Z,1.20
2022-08-02T06:54:57.519Z,2.50
2022-08-02T06:57:24.414Z,2.60
2022-08-02T06:59:51.358Z,2.20
2022-08-02T07:02:18.251Z,2.03
2022-08-02T07:04:45.192Z,2.00
2022-08-02T07:07:12.165Z,1.92
2022-08-02T07:09:39.097Z,2.28
2022-08-02T07:12:23.021Z,2.10
2022-08-02T07:14:49.889Z,2.13
2022-08-02T07:17:16.783Z,1.83
2022-08-02T07:19:43.687Z,1.80
2022-08-02T07:22:13.098Z,2.10
2022-08-02T07:24:40.858Z,1.85
2022-08-02T07:27:12.312Z,2.15
2022-08-02T07:29:46.613Z,1.80
2022-08-02T07:32:23.238Z,2.40
2022-08-02T07:34:53.625Z,2.00
2022-08-02T07:37:55.692Z,1.92
2022-08-02T07:40:19.870Z,1.80
2022-08-02T07:42:49.964Z,2.20
2022-08-02T07:45:16.877Z,1.98
2022-08-02T07:47:45.093Z,2.45
2022-08-02T07:50:14.338Z,1.80
2022-08-02T07:52:41.925Z,2.00
2022-08-02T07:55:10.163Z,2.05
2022-08-02T07:57:42.492Z,2.03
2022-08-02T08:00:13.695Z,2.30
2022-08-02T08:02:40.820Z,2.05
2022-08-02T08:05:08.315Z,2.42
2022-08-02T08:07:35.302Z,2.28
2022-08-02T08:10:02.740Z,1.90
2022-08-02T08:12:29.692Z,2.45
2022-08-02T08:14:56.584Z,1.60
2022-08-02T08:17:23.973Z,1.60
2022-08-02T08:19:52.768Z,1.75
2022-08-02T08:22:22.854Z,1.38
2022-08-02T08:24:50.199Z,1.70
2022-08-02T08:27:18.514Z,2.13
2022-08-02T08:29:46.170Z,1.50
2022-08-02T08:32:17.225Z,1.17
2022-08-02T08:34:46.020Z,1.83
2022-08-02T08:37:16.739Z,1.52
2022-08-02T08:39:56.145Z,1.70
2022-08-02T08:42:27.026Z,1.33
2022-08-02T08:44:56.609Z,1.25
2022-08-02T08:47:27.172Z,1.58
2022-08-02T08:50:13.111Z,1.17
2022-08-02T08:53:04.868Z,1.30
2022-08-02T08:55:33.804Z,1.45
2022-08-02T08:58:01.449Z,1.30
2022-08-02T09:00:30.819Z,1.50
2022-08-02T09:02:58.198Z,1.50
2022-08-02T09:05:25.597Z,1.35
2022-08-02T09:07:53.579Z,1.55
2022-08-02T09:10:41.451Z,1.50
2022-08-02T09:13:37.561Z,1.45
2022-08-02T09:16:11.158Z,1.30
2022-08-02T09:18:47.322Z,1.70
2022-08-02T09:21:16.464Z,1.50
2022-08-02T09:23:51.765Z,1.30
2022-08-02T09:26:21.776Z,1.42
2022-08-02T09:28:50.423Z,1.40
2022-08-02T09:31:20.329Z,1.60
2022-08-02T09:33:54.529Z,1.15
2022-08-02T09:36:22.763Z,1.20
2022-08-02T09:39:05.795Z,1.30
2022-08-02T09:41:35.113Z,1.02
2022-08-02T09:44:06.755Z,1.10
2022-08-02T09:46:39.179Z,1.05
2022-08-02T09:49:08.668Z,1.55
2022-08-02T09:54:09.919Z,1.00
2022-08-02T09:56:44.559Z,1.20
2022-08-02T09:59:12.513Z,1.10
2022-08-02T10:01:39.678Z,1.13
2022-08-02T10:04:21.789Z,1.17
2022-08-02T10:06:50.770Z,1.13
2022-08-02T10:09:18.039Z,1.10
2022-08-02T10:11:45.155Z,1.27
2022-08-02T10:14:12.595Z,1.08
2022-08-02T10:16:43.413Z,1.35
2022-08-02T10:19:11.255Z,1.70
2022-08-02T10:21:46.894Z,1.27
2022-08-02T10:24:22.843Z,1.23
2022-08-02T10:26:49.964Z,1.25
2022-08-02T10:29:23.362Z,1.27
2022-08-02T10:32:14.352Z,1.80
2022-08-02T10:34:52.238Z,3.70
2022-08-02T10:37:19.258Z,4.25
2022-08-02T10:39:50.510Z,2.25
2022-08-02T10:42:43.611Z,1.50
2022-08-02T10:45:12.190Z,1.50
2022-08-02T10:47:39.031Z,1.10
2022-08-02T10:50:06.413Z,1.30
2022-08-02T10:52:33.584Z,1.50
2022-08-02T10:55:22.495Z,1.40
2022-08-02T11:00:23.228Z,1.08
2022-08-02T11:02:53.250Z,1.10
2022-08-02T11:05:43.116Z,1.17
2022-08-02T11:08:20.951Z,1.30
2022-08-02T11:10:48.114Z,1.40
2022-08-02T11:13:17.432Z,1.27
2022-08-02T11:15:55.345Z,1.23
2022-08-02T11:18:23.362Z,1.30
2022-08-02T11:21:41.586Z,1.45
2022-08-02T11:24:29.788Z,1.08
2022-08-02T11:26:57.937Z,1.20
2022-08-02T11:29:38.538Z,0.88
2022-08-02T11:32:15.389Z,1.20
2022-08-02T11:34:43.499Z,1.30
2022-08-02T11:37:10.694Z,0.98
2022-08-02T11:39:37.640Z,1.00
2022-08-02T11:42:04.798Z,1.15
2022-08-02T11:44:41.226Z,1.20
2022-08-02T11:47:08.476Z,1.10
2022-08-02T11:49:37.255Z,0.82
2022-08-02T11:52:10.957Z,1.08
2022-08-02T11:54:43.160Z,0.90
2022-08-02T11:57:17.045Z,1.10
2022-08-02T11:59:55.268Z,0.90
2022-08-02T12:02:28.915Z,1.05
2022-08-02T12:05:02.108Z,0.90
2022-08-02T12:07:45.888Z,1.00
2022-08-02T12:10:18.826Z,1.30
2022-08-02T12:12:59.292Z,1.10
2022-08-02T12:15:37.833Z,0.98
2022-08-02T12:18:38.997Z,1.00
2022-08-02T12:21:22.765Z,0.93
2022-08-02T12:23:59.486Z,0.98
2022-08-02T12:26:28.130Z,1.00
2022-08-02T12:28:59.629Z,0.80
2022-08-02T12:31:56.812Z,0.80
2022-08-02T12:34:29.989Z,1.20
2022-08-02T12:37:03.725Z,1.10
2022-08-02T12:39:51.096Z,0.80
2022-08-02T12:42:18.012Z,0.63
2022-08-02T12:44:59.043Z,0.93
2022-08-02T12:47:31.438Z,0.80
2022-08-02T12:50:20.889Z,0.93
2022-08-02T12:52:51.537Z,0.90
2022-08-02T12:55:24.434Z,0.80
2022-08-02T12:58:02.976Z,0.80
2022-08-02T13:00:31.945Z,0.93
2022-08-02T13:02:59.968Z,0.85
2022-08-02T13:05:57.023Z,1.17
2022-08-02T13:08:18.802Z,0.70
2022-08-02T13:10:45.894Z,0.82
2022-08-02T13:13:12.785Z,0.77
2022-08-02T13:15:50.164Z,1.10
2022-08-02T13:18:18.582Z,0.80
2022-08-02T13:20:45.939Z,0.80
2022-08-02T13:23:14.218Z,0.75
2022-08-02T13:25:48.371Z,0.95
2022-08-02T13:28:20.008Z,0.90
2022-08-02T13:30:47.267Z,0.80
2022-08-02T13:33:14.707Z,1.00
2022-08-02T13:35:42.465Z,0.75
2022-08-02T13:38:09.408Z,0.80
2022-08-02T13:41:04.251Z,0.88
2022-08-02T13:43:52.883Z,0.77
2022-08-02T13:46:29.080Z,0.93
2022-08-02T13:48:56.855Z,0.80
2022-08-02T13:51:23.837Z,1.08
2022-08-02T13:53:50.695Z,0.80
2022-08-02T13:56:17.582Z,0.80
2022-08-02T13:58:44.559Z,0.63
2022-08-02T14:01:11.544Z,0.88
2022-08-02T14:04:07.310Z,1.27
2022-08-02T14:06:25.611Z,0.73
2022-08-02T14:08:53.027Z,0.80
2022-08-02T14:11:19.952Z,0.85
2022-08-02T14:13:46.826Z,0.55
2022-08-02T14:18:40.932Z,0.70
2022-08-02T14:21:07.813Z,0.95
2022-08-02T14:23:50.380Z,1.25
2022-08-02T14:26:27.064Z,1.00
2022-08-02T14:28:55.488Z,1.00
2022-08-02T14:31:22.545Z,1.00
2022-08-02T14:36:27.627Z,1.70
2022-08-02T14:38:55.811Z,1.00
2022-08-02T14:41:23.125Z,1.17
2022-08-02T14:44:05.113Z,1.13
2022-08-02T14:46:42.864Z,1.10
2022-08-02T14:51:41.730Z,0.90
2022-08-02T14:54:11.668Z,1.00
2022-08-02T14:56:39.009Z,1.00
2022-08-02T14:59:06.147Z,1.08
2022-08-02T15:01:33.402Z,0.80
2022-08-02T15:04:00.491Z,0.95
2022-08-02T15:06:32.908Z,0.88
2022-08-02T15:09:00.447Z,0.95
2022-08-02T15:11:27.430Z,0.88
2022-08-02T15:13:54.308Z,1.17
2022-08-02T15:16:47.338Z,1.00
2022-08-02T15:26:45.594Z,0.80
2022-08-02T15:29:12.519Z,0.73
2022-08-02T15:31:41.729Z,0.70
2022-08-02T15:36:35.708Z,0.85
2022-08-02T15:39:02.727Z,0.85
2022-08-02T15:41:29.581Z,1.05
2022-08-02T15:44:00.005Z,0.82
2022-08-02T15:46:31.097Z,0.80
2022-08-02T15:48:59.962Z,0.80
2022-08-02T15:51:27.171Z,0.90
2022-08-02T15:53:54.171Z,0.90
2022-08-02T15:56:23.923Z,0.80
2022-08-02T16:01:26.087Z,0.60
2022-08-02T16:04:06.884Z,0.70
2022-08-02T16:06:35.040Z,0.60
2022-08-02T16:09:02.271Z,0.75
2022-08-02T16:11:29.371Z,1.10
2022-08-02T16:13:56.783Z,0.98
2022-08-02T16:16:26.390Z,0.82
2022-08-02T16:18:53.728Z,0.60
2022-08-02T16:21:20.830Z,0.65
2022-08-02T16:26:30.660Z,0.68
2022-08-02T16:28:57.929Z,0.60
2022-08-02T16:31:24.882Z,0.70
2022-08-02T16:33:55.936Z,0.70
2022-08-02T16:36:24.817Z,0.70
2022-08-02T16:38:52.461Z,0.80
2022-08-02T16:41:19.622Z,0.85
2022-08-02T16:43:46.697Z,1.05
2022-08-02T16:46:13.937Z,0.80
2022-08-02T16:48:41.076Z,0.88
2022-08-02T16:54:00.521Z,0.60
2022-08-02T16:56:30.915Z,0.73
2022-08-02T16:58:59.700Z,0.85
2022-08-02T17:02:02.122Z,0.77
2022-08-02T17:04:15.447Z,0.90
2022-08-02T17:06:47.832Z,0.98
2022-08-02T17:10:02.596Z,0.80
2022-08-02T17:12:15.870Z,0.60
2022-08-02T17:14:54.878Z,1.00
2022-08-02T17:17:22.392Z,0.90
2022-08-02T17:20:01.863Z,0.77
2022-08-02T17:22:29.031Z,0.90
2022-08-02T17:24:56.188Z,0.85
2022-08-02T17:27:23.050Z,0.98
2022-08-02T17:29:49.949Z,1.30
2022-08-02T17:32:18.473Z,1.52
2022-08-02T17:34:56.391Z,1.15
2022-08-02T17:37:26.569Z,1.13
2022-08-02T17:39:53.504Z,1.25
2022-08-02T17:44:50.996Z,1.40
2022-08-02T17:47:18.510Z,1.15
2022-08-02T17:49:48.635Z,1.52
2022-08-02T17:52:50.229Z,1.20
2022-08-02T17:55:04.636Z,1.30
2022-08-02T17:57:57.870Z,1.20
2022-08-02T18:00:18.894Z,0.98
2022-08-02T18:02:55.199Z,1.00
2022-08-02T18:05:40.407Z,1.20
2022-08-02T18:08:21.337Z,0.98
2022-08-02T18:13:17.106Z,1.23
2022-08-02T18:18:31.171Z,0.98
2022-08-02T18:21:15.454Z,1.00
2022-08-02T18:23:44.117Z,1.20
2022-08-02T18:28:43.113Z,1.30
2022-08-02T18:31:15.253Z,1.38
2022-08-02T18:33:55.681Z,1.38
2022-08-02T18:36:28.055Z,1.10
2022-08-02T18:38:54.952Z,1.20
2022-08-02T18:41:21.967Z,1.42
2022-08-02T18:43:51.623Z,1.50
2022-08-02T18:46:19.964Z,1.30
2022-08-02T18:48:48.002Z,1.30
2022-08-02T18:53:48.929Z,1.08
2022-08-02T18:56:19.142Z,1.23
2022-08-02T18:58:48.731Z,1.20
2022-08-02T19:01:31.353Z,1.48
2022-08-02T19:04:00.341Z,1.40
2022-08-02T19:06:28.828Z,1.30
2022-08-02T19:09:04.944Z,0.95
2022-08-02T19:11:35.256Z,3.70
2022-08-02T19:14:02.527Z,4.10
2022-08-02T19:16:36.722Z,4.10
2022-08-02T19:19:08.082Z,3.40
2022-08-02T19:22:17.411Z,2.78
2022-08-02T19:24:22.141Z,2.90
2022-08-02T19:26:51.893Z,2.85
2022-08-02T19:29:42.181Z,2.78
2022-08-02T19:32:39.236Z,2.60
2022-08-02T19:34:55.922Z,3.00
2022-08-02T19:37:22.907Z,2.80
2022-08-02T19:42:18.825Z,3.35
2022-08-02T19:44:46.353Z,3.40
2022-08-02T19:47:19.485Z,2.83
2022-08-02T19:54:55.356Z,2.80
2022-08-02T19:57:25.204Z,2.95
2022-08-02T19:59:53.860Z,2.40
2022-08-02T20:02:21.293Z,2.55
2022-08-02T20:07:49.919Z,2.05
2022-08-02T20:10:04.743Z,2.00
2022-08-02T20:12:37.053Z,1.77
2022-08-02T20:17:37.193Z,1.65
2022-08-02T20:24:58.305Z,2.35
2022-08-02T20:27:29.931Z,2.67
2022-08-02T20:29:57.122Z,1.92
2022-08-02T20:32:24.137Z,1.90
2022-08-02T20:34:52.409Z,1.33
2022-08-02T20:40:09.445Z,1.63
2022-08-02T20:42:36.424Z,1.10
2022-08-02T20:45:05.438Z,1.55
2022-08-02T20:47:39.791Z,1.17
2022-08-02T20:50:30.735Z,1.40
2022-08-02T20:53:00.707Z,1.30
2022-08-02T20:55:31.063Z,1.38
2022-08-02T20:58:03.088Z,1.20
2022-08-02T21:03:00.350Z,1.10
2022-08-02T21:05:54.740Z,1.30
2022-08-02T21:08:15.469Z,1.45
2022-08-02T21:10:50.268Z,1.05
2022-08-02T21:13:24.340Z,1.40
2022-08-02T21:15:55.146Z,1.40
2022-08-02T21:18:30.245Z,1.23
2022-08-02T21:21:08.778Z,1.38
2022-08-02T21:31:15.587Z,1.17
2022-08-02T21:36:33.766Z,1.13
2022-08-02T21:39:08.769Z,1.10
2022-08-02T21:41:39.866Z,3.20
2022-08-02T21:44:17.733Z,2.97
2022-08-02T21:46:49.420Z,2.17
2022-08-02T21:49:17.853Z,2.08
2022-08-02T21:51:49.279Z,1.90
2022-08-02T21:54:20.331Z,1.90
2022-08-02T21:56:50.198Z,2.00
2022-08-02T21:59:25.782Z,1.63
2022-08-02T22:01:54.716Z,1.55
2022-08-02T22:04:24.403Z,1.92
2022-08-02T22:06:51.371Z,1.70
2022-08-02T22:09:42.029Z,1.63
2022-08-02T22:14:39.464Z,1.77
2022-08-02T22:17:08.939Z,1.23
2022-08-02T22:19:36.397Z,1.70
2022-08-02T22:22:03.500Z,1.50
2022-08-02T22:24:30.597Z,1.63
2022-08-02T22:26:57.807Z,1.23
2022-08-02T22:29:25.210Z,1.30
2022-08-02T22:31:52.506Z,1.42
2022-08-02T22:34:26.641Z,1.30
2022-08-02T22:37:05.726Z,1.40
2022-08-02T22:39:34.315Z,1.17
2022-08-02T22:42:06.813Z,1.00
2022-08-02T22:44:34.954Z,1.23
2022-08-02T22:52:06.348Z,1.23
2022-08-02T22:54:33.497Z,1.25
2022-08-02T22:57:00.433Z,1.17
2022-08-02T22:58:35.328Z,0.73
2022-08-02T22:59:03.015Z,1.27
2022-08-02T22:59:39.011Z,1.00
2022-08-02T23:04:36.652Z,1.10
2022-08-02T23:07:04.132Z,1.02
2022-08-02T23:09:31.127Z,0.85
2022-08-02T23:11:58.016Z,1.15
2022-08-02T23:14:24.910Z,0.90
2022-08-02T23:19:52.753Z,4.47
2022-08-02T23:22:29.117Z,6.88
2022-08-02T23:24:57.594Z,5.72
2022-08-02T23:27:24.745Z,5.43
2022-08-02T23:29:51.644Z,4.88
2022-08-02T23:32:18.671Z,3.90
2022-08-02T23:34:52.781Z,3.10
2022-08-02T23:37:19.647Z,3.33
2022-08-02T23:39:46.634Z,3.40
2022-08-02T23:42:13.723Z,3.33
2022-08-02T23:44:40.911Z,3.20
2022-08-02T23:47:07.876Z,3.15
2022-08-02T23:49:34.901Z,3.05
2022-08-02T23:52:02.248Z,2.70
2022-08-02T23:54:29.406Z,2.80
2022-08-02T23:56:56.696Z,2.60
2022-08-02T23:59:23.640Z,2.65
